Portada
METAR-TAF:

METAR-TAF

Aeroports :

Dharamsala, Índia

latitud: 32-09-54N, longitud: 76-15-48E, altitud: 770 m

METAR: manca

Hora: 01:24 (19:54 UTC)

Pronòstic

L'informe es va fer fa 14 hores i 54 minuts, a les 05:00 UTC
Pronòstic vàlid del 23 a les 06 UTC al 23 a les 15 UTC
Vent 2 kt amb direcció variable
Visibilitat: 4000 m
Núvols disperses a una alçada de 3000 ft
Núvols disperses a una alçada de 8000 ft
boirina
Temporalment
l' 23 a les 09 UTC al 23 a les 12 UTC
Vent 4 kt del Sud
Visibilitat: 2500 m
Núvols disperses a una alçada de 1000 ft
Cel ennuvolat a una alçada de 1500 ft
Escasses núvols a una alçada de 3000 ft, Cumulonimbus.
Cel cobert a una alçada de 7000 ft
tempesta, pluja

TAF: VIGG 230500Z 2306/2315 VRB02KT 4000 BR SCT030 SCT080 TEMPO 2309/2312 18004KT 2500 -TSRA SCT010 BKN015 FEW030CB OVC070

Observacions i pronòstics meteorològics de més de 4000 aeroports (METAR i TAF).

Les estacions disponibles són els punts grocs i vermells al mapa.

Posi el ratolí al punt desitjat per veure el nom de l'estació.

Feu clic per veure les observacions i els pronòstics meteorològics.

Per canviar el mapa: feu clic els botons verds amb una creu de color negre per apropar; al botó verd amb un guió per allunyar la imatge; o en les fletxes verdes per a mapes adjacents.


METAR-TAF: